sensor_id;sensor_type;location;lat;lon;timestamp;temperature;humidity
17944;DHT22;9097;47.028;15.444;2024-03-22T00:00:18;12.40;99.90
17944;DHT22;9097;47.028;15.444;2024-03-22T00:03:21;12.50;99.90
17944;DHT22;9097;47.028;15.444;2024-03-22T00:06:23;12.50;99.90
17944;DHT22;9097;47.028;15.444;2024-03-22T00:09:25;12.50;99.90
17944;DHT22;9097;47.028;15.444;2024-03-22T00:12:28;12.50;99.90
17944;DHT22;9097;47.028;15.444;2024-03-22T00:15:30;12.40;99.90
17944;DHT22;9097;47.028;15.444;2024-03-22T00:18:31;12.40;99.90
17944;DHT22;9097;47.028;15.444;2024-03-22T00:21:33;12.40;99.90
17944;DHT22;9097;47.028;15.444;2024-03-22T00:24:35;12.40;99.90
17944;DHT22;9097;47.028;15.444;2024-03-22T00:27:40;12.20;99.90
17944;DHT22;9097;47.028;15.444;2024-03-22T00:30:42;12.20;99.90
17944;DHT22;9097;47.028;15.444;2024-03-22T00:33:44;12.10;99.90
17944;DHT22;9097;47.028;15.444;2024-03-22T00:36:47;12.20;99.90
17944;DHT22;9097;47.028;15.444;2024-03-22T00:39:48;12.10;99.90
17944;DHT22;9097;47.028;15.444;2024-03-22T00:42:52;12.00;99.90
17944;DHT22;9097;47.028;15.444;2024-03-22T00:45:53;11.90;99.90
17944;DHT22;9097;47.028;15.444;2024-03-22T00:48:55;11.80;99.90
17944;DHT22;9097;47.028;15.444;2024-03-22T00:51:59;11.80;99.90
17944;DHT22;9097;47.028;15.444;2024-03-22T00:55:00;11.80;99.90
17944;DHT22;9097;47.028;15.444;2024-03-22T00:58:04;11.70;99.90
17944;DHT22;9097;47.028;15.444;2024-03-22T01:01:05;11.80;99.90
17944;DHT22;9097;47.028;15.444;2024-03-22T01:04:08;11.70;99.90
17944;DHT22;9097;47.028;15.444;2024-03-22T01:07:10;11.70;99.90
17944;DHT22;9097;47.028;15.444;2024-03-22T01:10:12;11.60;99.90
17944;DHT22;9097;47.028;15.444;2024-03-22T01:13:15;11.60;99.90
17944;DHT22;9097;47.028;15.444;2024-03-22T01:16:18;11.50;99.90
17944;DHT22;9097;47.028;15.444;2024-03-22T01:19:19;11.50;99.90
17944;DHT22;9097;47.028;15.444;2024-03-22T01:22:22;11.50;99.90
17944;DHT22;9097;47.028;15.444;2024-03-22T01:25:24;11.50;99.90
17944;DHT22;9097;47.028;15.444;2024-03-22T01:28:27;11.50;99.90
17944;DHT22;9097;47.028;15.444;2024-03-22T01:31:30;11.50;99.90
17944;DHT22;9097;47.028;15.444;2024-03-22T01:34:31;11.40;99.90
17944;DHT22;9097;47.028;15.444;2024-03-22T01:37:33;11.40;99.90
17944;DHT22;9097;47.028;15.444;2024-03-22T01:40:36;11.40;99.90
17944;DHT22;9097;47.028;15.444;2024-03-22T01:43:38;11.50;99.90
17944;DHT22;9097;47.028;15.444;2024-03-22T01:46:41;11.50;99.90
17944;DHT22;9097;47.028;15.444;2024-03-22T01:49:43;11.50;99.90
17944;DHT22;9097;47.028;15.444;2024-03-22T01:52:44;11.50;99.90
17944;DHT22;9097;47.028;15.444;2024-03-22T01:55:47;11.40;99.90
17944;DHT22;9097;47.028;15.444;2024-03-22T01:58:50;11.40;99.90
17944;DHT22;9097;47.028;15.444;2024-03-22T02:01:52;11.40;99.90
17944;DHT22;9097;47.028;15.444;2024-03-22T02:04:53;11.40;99.90
17944;DHT22;9097;47.028;15.444;2024-03-22T02:07:56;11.40;99.90
17944;DHT22;9097;47.028;15.444;2024-03-22T02:10:58;11.40;99.90
17944;DHT22;9097;47.028;15.444;2024-03-22T02:14:01;11.40;99.90
17944;DHT22;9097;47.028;15.444;2024-03-22T02:17:23;11.40;99.90
17944;DHT22;9097;47.028;15.444;2024-03-22T02:20:26;11.50;99.90
17944;DHT22;9097;47.028;15.444;2024-03-22T02:23:33;11.50;99.90
17944;DHT22;9097;47.028;15.444;2024-03-22T02:26:36;11.50;99.90
17944;DHT22;9097;47.028;15.444;2024-03-22T02:29:37;11.50;99.90
17944;DHT22;9097;47.028;15.444;2024-03-22T02:32:39;11.60;99.90
17944;DHT22;9097;47.028;15.444;2024-03-22T02:35:41;11.80;99.90
17944;DHT22;9097;47.028;15.444;2024-03-22T02:38:45;11.90;99.90
17944;DHT22;9097;47.028;15.444;2024-03-22T02:41:46;12.10;99.90
17944;DHT22;9097;47.028;15.444;2024-03-22T02:44:49;12.10;99.90
17944;DHT22;9097;47.028;15.444;2024-03-22T02:47:50;12.20;99.90
17944;DHT22;9097;47.028;15.444;2024-03-22T02:50:55;12.30;99.90
17944;DHT22;9097;47.028;15.444;2024-03-22T02:53:58;12.30;99.90
17944;DHT22;9097;47.028;15.444;2024-03-22T02:57:01;12.40;99.90
17944;DHT22;9097;47.028;15.444;2024-03-22T03:00:03;12.40;99.90
17944;DHT22;9097;47.028;15.444;2024-03-22T03:03:06;12.50;99.90
17944;DHT22;9097;47.028;15.444;2024-03-22T03:06:07;12.50;99.90
17944;DHT22;9097;47.028;15.444;2024-03-22T03:09:11;12.60;99.90
17944;DHT22;9097;47.028;15.444;2024-03-22T03:12:13;12.60;99.90
17944;DHT22;9097;47.028;15.444;2024-03-22T03:15:17;12.70;99.90
17944;DHT22;9097;47.028;15.444;2024-03-22T03:18:20;12.70;99.90
17944;DHT22;9097;47.028;15.444;2024-03-22T03:21:22;12.70;99.90
17944;DHT22;9097;47.028;15.444;2024-03-22T03:24:25;12.70;99.90
17944;DHT22;9097;47.028;15.444;2024-03-22T03:27:27;12.70;99.90
17944;DHT22;9097;47.028;15.444;2024-03-22T03:30:29;12.70;99.90
17944;DHT22;9097;47.028;15.444;2024-03-22T03:33:31;12.60;99.90
17944;DHT22;9097;47.028;15.444;2024-03-22T03:36:33;12.60;99.90
17944;DHT22;9097;47.028;15.444;2024-03-22T03:39:36;12.50;99.90
17944;DHT22;9097;47.028;15.444;2024-03-22T03:42:38;12.60;99.90
17944;DHT22;9097;47.028;15.444;2024-03-22T03:45:40;12.50;99.90
17944;DHT22;9097;47.028;15.444;2024-03-22T03:48:43;12.50;99.90
17944;DHT22;9097;47.028;15.444;2024-03-22T03:51:44;12.50;99.90
17944;DHT22;9097;47.028;15.444;2024-03-22T03:54:47;12.40;99.90
17944;DHT22;9097;47.028;15.444;2024-03-22T03:57:50;12.40;99.90
17944;DHT22;9097;47.028;15.444;2024-03-22T04:00:52;12.40;99.90
17944;DHT22;9097;47.028;15.444;2024-03-22T04:03:54;12.40;99.90
17944;DHT22;9097;47.028;15.444;2024-03-22T04:06:56;12.30;99.90
17944;DHT22;9097;47.028;15.444;2024-03-22T04:09:59;12.30;99.90
17944;DHT22;9097;47.028;15.444;2024-03-22T04:13:03;12.30;99.90
17944;DHT22;9097;47.028;15.444;2024-03-22T04:16:06;12.30;99.90
17944;DHT22;9097;47.028;15.444;2024-03-22T04:19:07;12.30;99.90
17944;DHT22;9097;47.028;15.444;2024-03-22T04:22:10;12.20;99.90
17944;DHT22;9097;47.028;15.444;2024-03-22T04:25:12;12.20;99.90
17944;DHT22;9097;47.028;15.444;2024-03-22T04:28:15;12.20;99.90
17944;DHT22;9097;47.028;15.444;2024-03-22T04:31:17;12.10;99.90
17944;DHT22;9097;47.028;15.444;2024-03-22T04:34:19;12.10;99.90
17944;DHT22;9097;47.028;15.444;2024-03-22T04:37:21;12.00;99.90
17944;DHT22;9097;47.028;15.444;2024-03-22T04:40:26;11.90;99.90
17944;DHT22;9097;47.028;15.444;2024-03-22T04:43:28;11.80;99.90
17944;DHT22;9097;47.028;15.444;2024-03-22T04:46:30;11.70;99.90
17944;DHT22;9097;47.028;15.444;2024-03-22T04:49:33;11.60;99.90
17944;DHT22;9097;47.028;15.444;2024-03-22T04:52:34;11.40;99.90
17944;DHT22;9097;47.028;15.444;2024-03-22T04:55:37;11.40;99.90
17944;DHT22;9097;47.028;15.444;2024-03-22T04:58:39;11.20;99.90
17944;DHT22;9097;47.028;15.444;2024-03-22T05:01:42;11.10;99.90
17944;DHT22;9097;47.028;15.444;2024-03-22T05:07:50;11.00;99.90
17944;DHT22;9097;47.028;15.444;2024-03-22T05:10:54;10.80;99.90
17944;DHT22;9097;47.028;15.444;2024-03-22T05:13:57;10.70;99.90
17944;DHT22;9097;47.028;15.444;2024-03-22T05:17:00;10.80;99.90
17944;DHT22;9097;47.028;15.444;2024-03-22T05:20:01;10.90;99.90
17944;DHT22;9097;47.028;15.444;2024-03-22T05:23:04;11.00;99.90
17944;DHT22;9097;47.028;15.444;2024-03-22T05:26:08;11.10;99.90
17944;DHT22;9097;47.028;15.444;2024-03-22T05:29:09;11.00;99.90
17944;DHT22;9097;47.028;15.444;2024-03-22T05:32:12;11.10;99.90
17944;DHT22;9097;47.028;15.444;2024-03-22T05:35:13;11.10;99.90
17944;DHT22;9097;47.028;15.444;2024-03-22T05:38:15;11.10;99.90
17944;DHT22;9097;47.028;15.444;2024-03-22T05:41:19;11.00;99.90
17944;DHT22;9097;47.028;15.444;2024-03-22T05:44:21;11.10;99.90
17944;DHT22;9097;47.028;15.444;2024-03-22T05:47:24;11.10;99.90
17944;DHT22;9097;47.028;15.444;2024-03-22T05:50:26;11.00;99.90
17944;DHT22;9097;47.028;15.444;2024-03-22T05:53:29;11.00;99.90
17944;DHT22;9097;47.028;15.444;2024-03-22T05:56:33;11.00;99.90
17944;DHT22;9097;47.028;15.444;2024-03-22T05:59:34;11.10;99.90
17944;DHT22;9097;47.028;15.444;2024-03-22T06:02:36;11.00;99.90
17944;DHT22;9097;47.028;15.444;2024-03-22T06:05:38;11.00;99.90
17944;DHT22;9097;47.028;15.444;2024-03-22T06:08:41;11.10;99.90
17944;DHT22;9097;47.028;15.444;2024-03-22T06:11:46;11.00;99.90
17944;DHT22;9097;47.028;15.444;2024-03-22T06:14:48;11.10;99.90
17944;DHT22;9097;47.028;15.444;2024-03-22T06:17:51;11.10;99.90
17944;DHT22;9097;47.028;15.444;2024-03-22T06:20:54;11.10;99.90
17944;DHT22;9097;47.028;15.444;2024-03-22T06:23:55;11.20;99.90
17944;DHT22;9097;47.028;15.444;2024-03-22T06:26:59;11.40;99.90
17944;DHT22;9097;47.028;15.444;2024-03-22T06:30:02;11.60;99.90
17944;DHT22;9097;47.028;15.444;2024-03-22T06:33:04;11.80;99.90
17944;DHT22;9097;47.028;15.444;2024-03-22T06:36:08;12.10;99.90
17944;DHT22;9097;47.028;15.444;2024-03-22T06:39:09;12.30;99.90
17944;DHT22;9097;47.028;15.444;2024-03-22T06:42:13;12.50;99.90
17944;DHT22;9097;47.028;15.444;2024-03-22T06:45:15;12.70;99.90
17944;DHT22;9097;47.028;15.444;2024-03-22T06:48:16;12.90;99.90
17944;DHT22;9097;47.028;15.444;2024-03-22T06:51:19;13.20;99.90
17944;DHT22;9097;47.028;15.444;2024-03-22T06:54:20;13.40;99.90
17944;DHT22;9097;47.028;15.444;2024-03-22T06:57:24;13.60;99.90
17944;DHT22;9097;47.028;15.444;2024-03-22T07:00:25;13.80;99.90
17944;DHT22;9097;47.028;15.444;2024-03-22T07:03:27;13.90;99.90
17944;DHT22;9097;47.028;15.444;2024-03-22T07:06:29;14.10;99.90
17944;DHT22;9097;47.028;15.444;2024-03-22T07:09:32;14.20;99.90
17944;DHT22;9097;47.028;15.444;2024-03-22T07:12:35;14.40;99.90
17944;DHT22;9097;47.028;15.444;2024-03-22T07:15:38;14.60;99.90
17944;DHT22;9097;47.028;15.444;2024-03-22T07:18:39;14.70;99.90
17944;DHT22;9097;47.028;15.444;2024-03-22T07:21:41;14.80;99.90
17944;DHT22;9097;47.028;15.444;2024-03-22T07:24:42;14.90;99.90
17944;DHT22;9097;47.028;15.444;2024-03-22T07:27:47;15.00;99.90
17944;DHT22;9097;47.028;15.444;2024-03-22T07:30:50;15.10;99.90
17944;DHT22;9097;47.028;15.444;2024-03-22T07:33:53;15.20;99.90
17944;DHT22;9097;47.028;15.444;2024-03-22T07:36:54;15.40;99.90
17944;DHT22;9097;47.028;15.444;2024-03-22T07:39:57;15.40;99.90
17944;DHT22;9097;47.028;15.444;2024-03-22T07:43:00;15.50;99.90
17944;DHT22;9097;47.028;15.444;2024-03-22T07:46:06;15.60;99.90
17944;DHT22;9097;47.028;15.444;2024-03-22T07:49:08;15.60;99.90
17944;DHT22;9097;47.028;15.444;2024-03-22T07:52:10;15.60;99.90
17944;DHT22;9097;47.028;15.444;2024-03-22T07:55:12;15.70;99.90
17944;DHT22;9097;47.028;15.444;2024-03-22T07:58:15;15.70;99.90
17944;DHT22;9097;47.028;15.444;2024-03-22T08:01:17;15.70;99.90
17944;DHT22;9097;47.028;15.444;2024-03-22T08:04:19;15.70;99.90
17944;DHT22;9097;47.028;15.444;2024-03-22T08:07:21;15.70;99.90
17944;DHT22;9097;47.028;15.444;2024-03-22T08:10:23;15.70;99.90
17944;DHT22;9097;47.028;15.444;2024-03-22T08:13:27;15.60;99.90
17944;DHT22;9097;47.028;15.444;2024-03-22T08:16:29;15.60;99.90
17944;DHT22;9097;47.028;15.444;2024-03-22T08:19:32;15.60;99.90
17944;DHT22;9097;47.028;15.444;2024-03-22T08:22:33;15.80;99.90
17944;DHT22;9097;47.028;15.444;2024-03-22T08:25:35;15.80;99.90
17944;DHT22;9097;47.028;15.444;2024-03-22T08:28:39;15.90;99.90
17944;DHT22;9097;47.028;15.444;2024-03-22T08:31:41;16.00;99.90
17944;DHT22;9097;47.028;15.444;2024-03-22T08:34:42;16.00;99.90
17944;DHT22;9097;47.028;15.444;2024-03-22T08:37:45;16.10;99.90
17944;DHT22;9097;47.028;15.444;2024-03-22T08:40:46;16.10;99.90
17944;DHT22;9097;47.028;15.444;2024-03-22T08:43:50;16.20;99.90
17944;DHT22;9097;47.028;15.444;2024-03-22T08:46:51;16.40;99.90
17944;DHT22;9097;47.028;15.444;2024-03-22T08:49:54;16.40;99.90
17944;DHT22;9097;47.028;15.444;2024-03-22T08:52:57;16.60;99.90
17944;DHT22;9097;47.028;15.444;2024-03-22T08:59:02;17.00;99.90
17944;DHT22;9097;47.028;15.444;2024-03-22T09:02:05;17.00;99.90
17944;DHT22;9097;47.028;15.444;2024-03-22T09:05:06;17.00;99.90
17944;DHT22;9097;47.028;15.444;2024-03-22T09:08:09;17.00;99.90
17944;DHT22;9097;47.028;15.444;2024-03-22T09:11:11;17.10;99.90
